createdAt,value
2018-07-14T00:02:25.567Z,70.58
2018-07-14T00:04:54.476Z,70.69
2018-07-14T00:07:23.644Z,70.69
2018-07-14T00:09:52.564Z,70.26
2018-07-14T00:12:21.500Z,70.75
2018-07-14T00:14:50.412Z,70.97
2018-07-14T00:17:19.295Z,70.71
2018-07-14T00:19:48.212Z,70.45
2018-07-14T00:22:17.235Z,70.84
2018-07-14T00:24:46.143Z,70.62
2018-07-14T00:27:15.222Z,70.24
2018-07-14T00:29:44.156Z,70.67
2018-07-14T00:32:13.192Z,70.86
2018-07-14T00:34:42.133Z,70.94
2018-07-14T00:37:11.025Z,70.72
2018-07-14T00:39:39.936Z,70.76
2018-07-14T00:42:08.831Z,71.04
2018-07-14T00:44:37.921Z,71.37
2018-07-14T00:47:06.814Z,71.57
2018-07-14T00:49:35.723Z,71.67
2018-07-14T00:52:04.757Z,71.59
2018-07-14T00:54:33.655Z,71.45
2018-07-14T00:57:02.559Z,71.96
2018-07-14T00:59:31.454Z,71.89
2018-07-14T01:02:00.422Z,72.02
2018-07-14T01:04:29.316Z,71.87
2018-07-14T01:06:58.208Z,71.73
2018-07-14T01:09:27.087Z,72.54
2018-07-14T01:11:55.981Z,72.25
2018-07-14T01:14:24.908Z,72.58
2018-07-14T01:16:53.783Z,72.23
2018-07-14T01:19:22.913Z,73.09
2018-07-14T01:21:51.822Z,72.53
2018-07-14T01:24:20.734Z,73.33
2018-07-14T01:26:49.628Z,73.15
2018-07-14T01:29:18.529Z,73.19
2018-07-14T01:31:47.414Z,73.27
2018-07-14T01:34:16.305Z,73.84
2018-07-14T01:36:45.220Z,73.36
2018-07-14T01:39:14.161Z,73.77
2018-07-14T01:41:43.061Z,74.55
2018-07-14T01:44:11.994Z,74.38
2018-07-14T01:46:40.889Z,74.53
2018-07-14T01:49:09.812Z,74.75
2018-07-14T01:51:38.707Z,74.64
2018-07-14T01:54:07.972Z,75.14
2018-07-14T01:56:36.937Z,74.72
2018-07-14T01:59:05.990Z,75.29
2018-07-14T02:01:34.893Z,74.77
2018-07-14T02:04:03.786Z,75.84
2018-07-14T02:06:32.704Z,76.51
2018-07-14T02:09:01.615Z,76.27
2018-07-14T02:11:30.524Z,76.48
2018-07-14T02:13:59.426Z,76.36
2018-07-14T02:16:28.333Z,76.38
2018-07-14T02:18:57.249Z,76.29
2018-07-14T02:21:26.166Z,76.57
2018-07-14T02:23:55.584Z,77.21
2018-07-14T02:26:24.499Z,76.80
2018-07-14T02:28:53.409Z,76.85
2018-07-14T02:31:22.313Z,77.19
2018-07-14T02:33:51.208Z,76.63
2018-07-14T02:36:20.113Z,77.18
2018-07-14T02:38:49.058Z,77.36
2018-07-14T02:41:17.961Z,77.07
2018-07-14T02:43:47.073Z,77.02
2018-07-14T02:46:15.996Z,77.54
2018-07-14T02:48:44.872Z,77.92
2018-07-14T02:51:13.792Z,78.05
2018-07-14T02:53:42.964Z,77.82
2018-07-14T02:56:11.850Z,78.09
2018-07-14T02:58:40.775Z,77.92
2018-07-14T03:01:09.701Z,78.12
2018-07-14T03:03:38.640Z,78.44
2018-07-14T03:06:07.538Z,78.67
2018-07-14T03:08:36.564Z,78.68
2018-07-14T03:11:05.474Z,78.48
2018-07-14T03:13:34.394Z,77.87
2018-07-14T03:16:03.308Z,78.50
2018-07-14T03:18:32.227Z,79.07
2018-07-14T03:21:01.311Z,79.09
2018-07-14T03:23:30.198Z,79.18
2018-07-14T03:25:59.128Z,78.97
2018-07-14T03:28:28.060Z,79.32
2018-07-14T03:30:56.963Z,79.22
2018-07-14T03:33:25.866Z,79.18
2018-07-14T03:35:54.761Z,79.27
2018-07-14T03:38:23.666Z,79.44
2018-07-14T03:40:52.601Z,79.76
2018-07-14T03:43:21.479Z,79.30
2018-07-14T03:45:50.475Z,80.20
2018-07-14T03:48:19.410Z,79.47
2018-07-14T03:50:51.575Z,79.90
2018-07-14T03:53:20.476Z,79.77
2018-07-14T03:55:49.406Z,79.81
2018-07-14T03:58:18.325Z,79.86
2018-07-14T04:00:47.244Z,80.77
2018-07-14T04:03:16.378Z,80.48
2018-07-14T04:05:45.389Z,80.26
2018-07-14T04:08:14.560Z,80.58
2018-07-14T04:10:43.453Z,80.35
2018-07-14T04:13:12.370Z,79.98
2018-07-14T04:15:41.273Z,80.46
2018-07-14T04:18:10.167Z,79.82
2018-07-14T04:20:39.081Z,80.25
2018-07-14T04:23:07.985Z,79.78
2018-07-14T04:25:36.901Z,80.79
2018-07-14T04:28:05.855Z,79.62
2018-07-14T04:30:34.774Z,80.89
2018-07-14T04:33:03.681Z,80.56
2018-07-14T04:35:32.576Z,80.71
2018-07-14T04:38:01.481Z,80.86
2018-07-14T04:40:30.389Z,80.61
2018-07-14T04:42:59.371Z,80.28
2018-07-14T04:45:28.294Z,80.30
2018-07-14T04:47:57.215Z,79.63
2018-07-14T04:50:26.153Z,80.92
2018-07-14T04:52:55.072Z,80.46
2018-07-14T04:55:23.993Z,79.99
2018-07-14T04:57:52.903Z,80.84
2018-07-14T05:00:25.471Z,80.44
2018-07-14T05:02:54.384Z,80.78
2018-07-14T05:05:23.285Z,80.17
2018-07-14T05:07:52.255Z,80.19
2018-07-14T05:10:22.131Z,80.03
2018-07-14T05:12:51.170Z,79.93
2018-07-14T05:15:20.205Z,80.29
2018-07-14T05:17:49.237Z,80.14
2018-07-14T05:20:18.160Z,79.98
2018-07-14T05:22:47.079Z,80.29
2018-07-14T05:25:15.989Z,80.15
2018-07-14T05:27:44.926Z,79.56
2018-07-14T05:30:14.200Z,80.31
2018-07-14T05:32:43.507Z,79.85
2018-07-14T05:35:12.441Z,79.50
2018-07-14T05:37:41.354Z,80.05
2018-07-14T05:40:10.254Z,79.00
2018-07-14T05:42:39.228Z,78.04
2018-07-14T05:45:08.134Z,78.84
2018-07-14T05:47:37.056Z,79.20
2018-07-14T05:50:06.202Z,79.24
2018-07-14T05:52:35.333Z,78.80
2018-07-14T05:55:04.269Z,78.70
2018-07-14T05:57:33.229Z,78.86
2018-07-14T06:00:02.143Z,78.97
2018-07-14T06:02:31.082Z,78.95
2018-07-14T06:04:59.981Z,78.81
2018-07-14T06:07:29.017Z,78.89
2018-07-14T06:09:57.936Z,78.53
2018-07-14T06:12:26.957Z,78.79
2018-07-14T06:14:55.861Z,78.41
2018-07-14T06:17:24.925Z,78.51
2018-07-14T06:19:53.793Z,78.84
2018-07-14T06:22:22.724Z,78.51
2018-07-14T06:24:54.668Z,78.27
2018-07-14T06:27:23.569Z,78.50
2018-07-14T06:29:52.456Z,77.78
2018-07-14T06:32:21.360Z,77.77
2018-07-14T06:34:50.274Z,77.83
2018-07-14T06:37:19.190Z,77.77
2018-07-14T06:39:48.070Z,77.60
2018-07-14T06:42:16.986Z,77.22
2018-07-14T06:44:45.957Z,76.84
2018-07-14T06:47:14.860Z,77.06
2018-07-14T06:49:43.862Z,76.77
2018-07-14T06:52:12.937Z,76.40
2018-07-14T06:54:41.879Z,76.76
2018-07-14T06:57:10.787Z,76.10
2018-07-14T06:59:39.837Z,76.12
2018-07-14T07:02:08.750Z,75.87
2018-07-14T07:04:37.665Z,75.67
2018-07-14T07:07:06.571Z,75.64
2018-07-14T07:09:35.474Z,75.90
2018-07-14T07:12:04.442Z,74.73
2018-07-14T07:14:33.359Z,75.24
2018-07-14T07:17:02.312Z,75.59
2018-07-14T07:19:31.233Z,75.36
2018-07-14T07:22:00.146Z,75.07
2018-07-14T07:24:29.100Z,74.56
2018-07-14T07:26:58.071Z,74.94
2018-07-14T07:29:27.161Z,74.47
2018-07-14T07:31:56.059Z,74.36
2018-07-14T07:34:24.978Z,74.05
2018-07-14T07:36:53.906Z,73.48
2018-07-14T07:39:22.993Z,73.84
2018-07-14T07:41:51.929Z,73.81
2018-07-14T07:44:20.870Z,73.75
2018-07-14T07:46:49.821Z,73.38
2018-07-14T07:49:18.722Z,73.06
2018-07-14T07:51:47.631Z,73.63
2018-07-14T07:54:16.612Z,72.90
2018-07-14T07:56:48.759Z,72.70
2018-07-14T07:59:17.859Z,72.30
2018-07-14T08:01:46.736Z,71.44
2018-07-14T08:04:15.643Z,72.38
2018-07-14T08:06:44.549Z,71.93
2018-07-14T08:09:13.471Z,71.85
2018-07-14T08:11:42.373Z,70.87
2018-07-14T08:14:11.640Z,71.12
2018-07-14T08:16:40.536Z,70.77
2018-07-14T08:19:09.475Z,71.11
2018-07-14T08:21:38.375Z,70.65
2018-07-14T08:24:07.331Z,69.98
2018-07-14T08:26:36.473Z,70.19
2018-07-14T08:29:05.671Z,70.18
2018-07-14T08:31:34.612Z,70.25
2018-07-14T08:34:03.548Z,69.81
2018-07-14T08:36:32.449Z,69.95
2018-07-14T08:39:01.441Z,69.45
2018-07-14T08:41:30.371Z,69.97
2018-07-14T08:43:59.584Z,69.27
2018-07-14T08:46:32.409Z,69.61
2018-07-14T08:49:01.369Z,69.25
2018-07-14T08:51:30.387Z,69.40
2018-07-14T08:53:59.293Z,68.95
2018-07-14T08:56:28.190Z,69.14
2018-07-14T08:58:57.127Z,68.52
2018-07-14T09:01:26.032Z,67.66
2018-07-14T09:03:54.962Z,68.48
2018-07-14T09:06:24.205Z,68.10
2018-07-14T09:08:53.120Z,67.85
2018-07-14T09:11:22.045Z,67.75
2018-07-14T09:13:51.019Z,67.77
2018-07-14T09:16:19.952Z,66.33
2018-07-14T09:18:48.858Z,67.11
2018-07-14T09:21:17.807Z,66.33
2018-07-14T09:23:46.702Z,66.65
2018-07-14T09:26:15.607Z,66.65
2018-07-14T09:28:44.559Z,66.70
2018-07-14T09:31:13.477Z,66.00
2018-07-14T09:33:42.441Z,65.93
2018-07-14T09:36:11.404Z,65.68
2018-07-14T09:38:40.390Z,65.56
2018-07-14T09:41:09.354Z,65.47
2018-07-14T09:43:38.344Z,64.35
2018-07-14T09:46:07.300Z,64.93
2018-07-14T09:48:36.200Z,64.61
2018-07-14T09:51:05.121Z,64.99
2018-07-14T09:53:34.124Z,64.78
2018-07-14T09:56:06.690Z,63.99
2018-07-14T09:58:35.619Z,63.91
2018-07-14T10:01:07.436Z,63.49
2018-07-14T10:03:36.712Z,63.32
2018-07-14T10:06:05.676Z,63.27
2018-07-14T10:08:34.569Z,63.29
2018-07-14T10:11:03.523Z,63.34
2018-07-14T10:13:32.476Z,63.29
2018-07-14T10:16:01.409Z,62.43
2018-07-14T10:18:30.335Z,62.34
2018-07-14T10:20:59.282Z,61.95
2018-07-14T10:23:28.204Z,61.53
2018-07-14T10:25:57.136Z,60.93
2018-07-14T10:28:26.050Z,61.00
2018-07-14T10:30:54.996Z,60.65
2018-07-14T10:33:23.927Z,60.74
2018-07-14T10:35:52.858Z,60.91
2018-07-14T10:38:21.827Z,60.79
2018-07-14T10:40:50.993Z,60.61
2018-07-14T10:43:20.407Z,60.33
2018-07-14T10:45:49.344Z,60.55
2018-07-14T10:48:22.177Z,60.39
2018-07-14T10:50:51.062Z,59.75
2018-07-14T10:53:19.967Z,58.25
2018-07-14T10:55:48.930Z,57.95
2018-07-14T10:58:17.926Z,57.72
2018-07-14T11:00:46.786Z,55.74
2018-07-14T11:03:15.716Z,55.22
2018-07-14T11:05:44.622Z,55.69
2018-07-14T11:08:13.532Z,56.02
2018-07-14T11:10:42.491Z,56.14
2018-07-14T11:13:15.267Z,55.92
2018-07-14T11:15:44.221Z,56.24
2018-07-14T11:18:13.169Z,54.67
2018-07-14T11:20:42.150Z,54.50
2018-07-14T11:23:11.139Z,54.31
2018-07-14T11:25:41.051Z,53.76
2018-07-14T11:28:10.945Z,54.60
2018-07-14T11:30:39.916Z,54.05
2018-07-14T11:33:08.999Z,54.19
2018-07-14T11:35:37.913Z,53.54
2018-07-14T11:38:06.863Z,53.03
2018-07-14T11:40:35.854Z,52.80
2018-07-14T11:43:04.840Z,53.42
2018-07-14T11:45:33.908Z,53.43
2018-07-14T11:48:02.815Z,54.14
2018-07-14T11:50:34.921Z,53.03
2018-07-14T11:53:03.871Z,52.00
2018-07-14T11:55:32.801Z,52.27
2018-07-14T11:58:01.721Z,52.44
2018-07-14T12:00:33.651Z,53.91
2018-07-14T12:03:02.917Z,52.74
2018-07-14T12:05:32.071Z,53.52
2018-07-14T12:08:01.093Z,48.73
2018-07-14T12:10:29.981Z,49.48
2018-07-14T12:12:58.904Z,51.51
2018-07-14T12:15:27.804Z,51.64
2018-07-14T12:17:56.740Z,50.02
2018-07-14T12:20:25.647Z,50.41
2018-07-14T12:22:54.593Z,51.28
2018-07-14T12:25:23.519Z,50.40
2018-07-14T12:27:52.413Z,49.40
2018-07-14T12:30:21.446Z,48.66
2018-07-14T12:32:50.317Z,48.11
2018-07-14T12:35:19.231Z,48.97
2018-07-14T12:37:48.140Z,48.94
2018-07-14T12:40:17.209Z,48.75
2018-07-14T12:42:46.117Z,49.35
2018-07-14T12:45:15.025Z,48.66
2018-07-14T12:47:43.937Z,48.71
2018-07-14T12:50:12.862Z,48.56
2018-07-14T12:52:41.749Z,48.09
2018-07-14T12:55:11.665Z,46.20
2018-07-14T12:57:40.629Z,46.91
2018-07-14T13:00:09.696Z,46.15
2018-07-14T13:02:38.847Z,45.76
2018-07-14T13:05:08.103Z,46.35
2018-07-14T13:07:37.029Z,46.23
2018-07-14T13:10:06.850Z,46.50
2018-07-14T13:12:35.869Z,44.53
2018-07-14T13:15:05.052Z,43.71
2018-07-14T13:17:33.984Z,43.16
2018-07-14T13:20:03.349Z,43.05
2018-07-14T13:22:32.531Z,42.22
2018-07-14T13:25:01.669Z,42.30
2018-07-14T13:27:30.608Z,42.27
2018-07-14T13:29:59.727Z,42.23
2018-07-14T13:32:28.633Z,42.42
2018-07-14T13:34:57.801Z,42.15
2018-07-14T13:37:26.730Z,42.58
2018-07-14T13:39:55.914Z,41.92
2018-07-14T13:42:24.848Z,41.13
2018-07-14T13:44:53.755Z,41.45
2018-07-14T13:47:22.677Z,41.91
2018-07-14T13:49:51.607Z,41.71
2018-07-14T13:52:20.518Z,41.27
2018-07-14T13:54:49.411Z,40.19
2018-07-14T13:57:18.437Z,40.82
2018-07-14T13:59:47.279Z,40.26
2018-07-14T14:02:16.204Z,40.05
2018-07-14T14:04:45.107Z,40.04
2018-07-14T14:07:14.030Z,39.65
2018-07-14T14:09:42.957Z,39.62
2018-07-14T14:12:11.902Z,40.17
2018-07-14T14:14:44.436Z,39.54
2018-07-14T14:17:13.327Z,39.39
2018-07-14T14:19:45.699Z,39.46
2018-07-14T14:22:18.025Z,39.21
2018-07-14T14:24:46.961Z,38.57
2018-07-14T14:27:15.866Z,38.51
2018-07-14T14:29:44.776Z,38.19
2018-07-14T14:32:13.841Z,38.58
2018-07-14T14:34:42.731Z,38.49
2018-07-14T14:37:11.635Z,38.31
2018-07-14T14:39:40.530Z,37.80
2018-07-14T14:42:09.438Z,38.11
2018-07-14T14:44:38.383Z,38.28
2018-07-14T14:47:07.277Z,38.54
2018-07-14T14:49:36.180Z,38.93
2018-07-14T14:52:05.405Z,38.68
2018-07-14T14:54:34.682Z,38.29
2018-07-14T14:57:07.571Z,39.23
2018-07-14T14:59:36.749Z,39.32
2018-07-14T15:02:05.697Z,40.37
2018-07-14T15:04:34.565Z,39.64
2018-07-14T15:07:03.483Z,40.07
2018-07-14T15:09:32.377Z,40.09
2018-07-14T15:12:01.301Z,40.16
2018-07-14T15:14:30.234Z,40.34
2018-07-14T15:16:59.316Z,39.24
2018-07-14T15:19:28.424Z,38.54
2018-07-14T15:21:57.695Z,39.99
2018-07-14T15:24:26.641Z,40.34
2018-07-14T15:26:55.548Z,40.45
2018-07-14T15:29:24.482Z,40.12
2018-07-14T15:31:53.409Z,40.25
2018-07-14T15:34:22.364Z,40.83
2018-07-14T15:36:51.264Z,41.09
2018-07-14T15:39:20.294Z,40.73
2018-07-14T15:41:49.207Z,40.77
2018-07-14T15:44:18.134Z,40.68
2018-07-14T15:46:47.578Z,41.52
2018-07-14T15:49:17.663Z,41.23
2018-07-14T15:51:46.593Z,41.89
2018-07-14T15:54:15.543Z,41.30
2018-07-14T15:56:44.469Z,41.67
2018-07-14T15:59:13.438Z,41.35
2018-07-14T16:01:42.392Z,41.48
2018-07-14T16:04:11.311Z,41.44
2018-07-14T16:06:40.238Z,41.29
2018-07-14T16:09:09.191Z,41.58
2018-07-14T16:11:41.764Z,41.87
2018-07-14T16:14:10.709Z,41.81
2018-07-14T16:16:39.636Z,41.98
2018-07-14T16:19:08.634Z,41.94
2018-07-14T16:21:37.705Z,41.82
2018-07-14T16:24:06.647Z,41.36
2018-07-14T16:26:35.553Z,41.35
2018-07-14T16:29:04.474Z,41.42
2018-07-14T16:31:33.513Z,41.23
2018-07-14T16:34:02.418Z,41.14
2018-07-14T16:36:31.357Z,40.18
2018-07-14T16:39:00.266Z,41.09
2018-07-14T16:41:29.179Z,39.85
2018-07-14T16:43:58.094Z,39.88
2018-07-14T16:46:27.027Z,39.17
2018-07-14T16:48:55.955Z,39.69
2018-07-14T16:51:25.143Z,39.38
2018-07-14T16:53:54.123Z,39.43
2018-07-14T16:56:23.007Z,39.83
2018-07-14T16:58:52.469Z,40.02
2018-07-14T17:01:21.418Z,39.67
2018-07-14T17:03:50.296Z,40.01
2018-07-14T17:06:19.227Z,40.57
2018-07-14T17:08:48.123Z,39.29
2018-07-14T17:11:17.289Z,39.18
2018-07-14T17:13:46.269Z,39.73
2018-07-14T17:16:15.149Z,40.08
2018-07-14T17:18:44.072Z,40.02
2018-07-14T17:21:12.984Z,40.53
2018-07-14T17:23:41.878Z,40.65
2018-07-14T17:26:10.808Z,40.50
2018-07-14T17:28:39.731Z,40.60
2018-07-14T17:31:09.865Z,40.25
2018-07-14T17:33:38.926Z,40.36
2018-07-14T17:36:07.863Z,40.36
2018-07-14T17:38:36.770Z,40.07
2018-07-14T17:41:05.695Z,40.37
2018-07-14T17:43:34.596Z,40.08
2018-07-14T17:46:03.475Z,40.76
2018-07-14T17:48:32.415Z,41.67
2018-07-14T17:51:01.315Z,40.96
2018-07-14T17:53:30.201Z,41.15
2018-07-14T17:55:59.075Z,40.75
2018-07-14T17:58:27.989Z,41.03
2018-07-14T18:00:56.874Z,41.29
2018-07-14T18:03:25.766Z,40.66
2018-07-14T18:05:54.683Z,40.51
2018-07-14T18:08:23.723Z,40.48
2018-07-14T18:10:53.076Z,40.37
2018-07-14T18:13:21.985Z,41.01
2018-07-14T18:15:50.889Z,40.79
2018-07-14T18:18:19.770Z,40.79
2018-07-14T18:20:48.717Z,40.93
2018-07-14T18:23:17.631Z,41.06
2018-07-14T18:25:46.538Z,40.99
2018-07-14T18:28:15.445Z,41.13
2018-07-14T18:30:44.816Z,40.70
2018-07-14T18:33:13.711Z,40.72
2018-07-14T18:35:42.615Z,40.59
2018-07-14T18:38:11.535Z,40.11
2018-07-14T18:40:40.437Z,41.19
2018-07-14T18:43:09.509Z,40.86
2018-07-14T18:45:38.548Z,40.69
2018-07-14T18:48:07.490Z,40.28
2018-07-14T18:50:36.442Z,40.09
2018-07-14T18:53:05.485Z,40.86
2018-07-14T18:55:34.355Z,41.50
2018-07-14T18:58:03.231Z,41.69
2018-07-14T19:00:32.137Z,41.71
2018-07-14T19:03:01.281Z,41.92
2018-07-14T19:05:30.147Z,42.03
2018-07-14T19:07:59.244Z,41.98
2018-07-14T19:10:28.209Z,42.17
2018-07-14T19:12:57.112Z,41.97
2018-07-14T19:15:26.017Z,41.74
2018-07-14T19:17:54.960Z,42.21
2018-07-14T19:20:23.872Z,42.42
2018-07-14T19:22:56.391Z,42.42
2018-07-14T19:25:25.276Z,42.58
2018-07-14T19:27:54.186Z,42.92
2018-07-14T19:30:23.147Z,43.35
2018-07-14T19:32:53.020Z,43.83
2018-07-14T19:35:21.938Z,44.21
2018-07-14T19:37:50.845Z,43.93
2018-07-14T19:40:19.794Z,44.12
2018-07-14T19:42:48.747Z,44.82
2018-07-14T19:45:17.636Z,44.87
2018-07-14T19:47:46.568Z,44.55
2018-07-14T19:50:15.472Z,44.86
2018-07-14T19:52:44.395Z,45.23
2018-07-14T19:55:13.315Z,45.80
2018-07-14T19:57:42.280Z,45.39
2018-07-14T20:00:11.268Z,45.46
2018-07-14T20:02:40.181Z,45.80
2018-07-14T20:05:09.119Z,45.96
2018-07-14T20:07:38.010Z,46.86
2018-07-14T20:10:06.942Z,47.12
2018-07-14T20:12:35.961Z,47.31
2018-07-14T20:15:04.895Z,47.50
2018-07-14T20:17:33.817Z,48.42
2018-07-14T20:20:02.696Z,49.05
2018-07-14T20:22:31.621Z,49.27
2018-07-14T20:25:00.529Z,49.84
2018-07-14T20:27:29.413Z,50.87
2018-07-14T20:29:58.420Z,50.95
2018-07-14T20:32:27.329Z,51.64
2018-07-14T20:34:57.184Z,51.84
2018-07-14T20:37:26.330Z,52.21
2018-07-14T20:39:55.278Z,52.20
2018-07-14T20:42:24.280Z,52.70
2018-07-14T20:44:53.204Z,53.47
2018-07-14T20:47:22.160Z,53.11
2018-07-14T20:49:51.160Z,53.73
2018-07-14T20:52:20.477Z,53.71
2018-07-14T20:54:49.330Z,54.17
2018-07-14T20:57:18.264Z,54.09
2018-07-14T20:59:47.382Z,54.16
2018-07-14T21:02:16.329Z,54.54
2018-07-14T21:04:45.502Z,55.02
2018-07-14T21:07:14.731Z,54.66
2018-07-14T21:09:43.657Z,54.58
2018-07-14T21:12:12.586Z,54.71
2018-07-14T21:14:42.019Z,54.97
2018-07-14T21:17:12.022Z,54.74
2018-07-14T21:19:40.933Z,54.60
2018-07-14T21:22:10.005Z,55.12
2018-07-14T21:24:38.967Z,55.08
2018-07-14T21:27:07.934Z,55.15
2018-07-14T21:29:36.856Z,54.78
2018-07-14T21:32:05.869Z,55.60
2018-07-14T21:34:34.793Z,55.43
2018-07-14T21:37:03.737Z,56.11
2018-07-14T21:39:32.647Z,55.93
2018-07-14T21:42:04.800Z,55.94
2018-07-14T21:44:33.721Z,56.46
2018-07-14T21:47:02.693Z,56.67
2018-07-14T21:49:31.615Z,56.61
2018-07-14T21:52:00.520Z,56.94
2018-07-14T21:54:29.457Z,56.96
2018-07-14T21:56:58.525Z,57.00
2018-07-14T21:59:27.441Z,56.74
2018-07-14T22:01:56.374Z,57.54
2018-07-14T22:04:25.449Z,57.47
2018-07-14T22:06:54.386Z,57.67
2018-07-14T22:09:23.325Z,57.44
2018-07-14T22:13:16.694Z,57.28
2018-07-14T22:15:45.600Z,57.01
2018-07-14T22:18:14.532Z,57.01
2018-07-14T22:20:43.668Z,57.59
2018-07-14T22:23:12.595Z,57.14
2018-07-14T22:25:41.462Z,57.10
2018-07-14T22:28:10.376Z,57.67
2018-07-14T22:30:39.446Z,57.84
2018-07-14T22:33:08.328Z,57.93
2018-07-14T22:35:37.248Z,58.59
2018-07-14T22:38:06.262Z,57.82
2018-07-14T22:40:35.133Z,57.82
2018-07-14T22:43:04.166Z,57.93
2018-07-14T22:45:33.123Z,57.73
2018-07-14T22:48:02.267Z,58.10
2018-07-14T22:50:31.164Z,57.88
2018-07-14T22:53:00.109Z,57.92
2018-07-14T22:55:28.994Z,58.23
2018-07-14T22:57:57.871Z,57.89
2018-07-14T23:00:26.789Z,58.41
2018-07-14T23:02:55.904Z,58.02
2018-07-14T23:05:24.893Z,57.35
2018-07-14T23:07:53.967Z,57.73
2018-07-14T23:10:22.858Z,57.67
2018-07-14T23:12:51.791Z,58.03
2018-07-14T23:15:20.821Z,57.92
2018-07-14T23:17:49.740Z,57.90
2018-07-14T23:20:18.823Z,58.05
2018-07-14T23:22:47.793Z,58.11
2018-07-14T23:25:16.722Z,57.86
2018-07-14T23:27:45.742Z,57.72
2018-07-14T23:30:14.650Z,57.91
2018-07-14T23:32:43.577Z,58.07
2018-07-14T23:35:12.451Z,57.96
2018-07-14T23:37:41.486Z,58.02
2018-07-14T23:40:10.881Z,58.18
2018-07-14T23:42:39.965Z,57.20
2018-07-14T23:45:08.975Z,57.65
2018-07-14T23:47:37.857Z,57.29
2018-07-14T23:50:06.813Z,57.32
2018-07-14T23:52:39.306Z,57.53
2018-07-14T23:55:08.312Z,58.20
2018-07-14T23:57:37.137Z,57.73
